sensor_id;sensor_type;location;lat;lon;timestamp;pressure;altitude;pressure_sealevel;temperature;humidity
48424;BME280;34232;42.502;26.014;2023-09-30T16:32:34;100038.81;;;25.88;27.25
48424;BME280;34232;42.502;26.014;2023-09-30T16:35:05;100047.44;;;25.78;27.40
48424;BME280;34232;42.502;26.014;2023-09-30T16:37:32;100046.69;;;25.71;27.59
48424;BME280;34232;42.502;26.014;2023-09-30T16:39:57;100062.06;;;25.71;28.04
48424;BME280;34232;42.502;26.014;2023-09-30T16:42:24;100066.00;;;25.68;28.18
48424;BME280;34232;42.502;26.014;2023-09-30T16:44:50;100062.38;;;25.63;28.19
48424;BME280;34232;42.502;26.014;2023-09-30T16:47:44;100066.56;;;25.52;28.19
48424;BME280;34232;42.502;26.014;2023-09-30T16:50:30;100068.09;;;25.48;29.12
48424;BME280;34232;42.502;26.014;2023-09-30T16:52:55;100070.00;;;25.41;29.11
48424;BME280;34232;42.502;26.014;2023-09-30T16:55:20;100072.53;;;25.36;29.57
48424;BME280;34232;42.502;26.014;2023-09-30T16:57:46;100073.06;;;25.26;29.75
48424;BME280;34232;42.502;26.014;2023-09-30T17:00:11;100074.63;;;25.16;30.07
48424;BME280;34232;42.502;26.014;2023-09-30T17:02:40;100078.44;;;25.01;30.29
48424;BME280;34232;42.502;26.014;2023-09-30T17:08:21;100086.69;;;24.75;30.95
48424;BME280;34232;42.502;26.014;2023-09-30T17:14:04;100088.16;;;24.39;31.60
48424;BME280;34232;42.502;26.014;2023-09-30T17:16:29;100089.88;;;24.27;30.31
48424;BME280;34232;42.502;26.014;2023-09-30T17:25:00;100097.97;;;24.27;30.98
48424;BME280;34232;42.502;26.014;2023-09-30T17:27:25;100102.94;;;24.24;31.38
48424;BME280;34232;42.502;26.014;2023-09-30T17:32:16;100104.16;;;24.21;30.56
48424;BME280;34232;42.502;26.014;2023-09-30T17:34:49;100099.81;;;24.20;30.84
48424;BME280;34232;42.502;26.014;2023-09-30T17:37:37;100106.47;;;24.18;30.71
48424;BME280;34232;42.502;26.014;2023-09-30T17:40:12;100107.72;;;24.15;30.43
48424;BME280;34232;42.502;26.014;2023-09-30T17:42:59;100107.50;;;24.10;30.68
48424;BME280;34232;42.502;26.014;2023-09-30T17:46:10;100113.31;;;24.14;30.50
48424;BME280;34232;42.502;26.014;2023-09-30T17:48:57;100117.25;;;24.11;30.87
48424;BME280;34232;42.502;26.014;2023-09-30T17:51:27;100118.69;;;24.07;31.24
48424;BME280;34232;42.502;26.014;2023-09-30T17:57:02;100114.41;;;23.99;31.85
48424;BME280;34232;42.502;26.014;2023-09-30T17:59:35;100113.38;;;23.94;31.80
48424;BME280;34232;42.502;26.014;2023-09-30T18:05:24;100120.84;;;23.79;31.95
48424;BME280;34232;42.502;26.014;2023-09-30T18:07:51;100123.16;;;23.68;32.53
48424;BME280;34232;42.502;26.014;2023-09-30T18:10:16;100118.81;;;23.61;32.54
48424;BME280;34232;42.502;26.014;2023-09-30T18:12:46;100122.56;;;23.53;33.16
48424;BME280;34232;42.502;26.014;2023-09-30T18:15:12;100126.06;;;23.47;32.82
48424;BME280;34232;42.502;26.014;2023-09-30T18:17:37;100118.63;;;23.36;33.28
48424;BME280;34232;42.502;26.014;2023-09-30T18:20:03;100120.47;;;23.29;33.66
48424;BME280;34232;42.502;26.014;2023-09-30T18:22:30;100122.13;;;23.23;33.87
48424;BME280;34232;42.502;26.014;2023-09-30T18:24:55;100117.16;;;23.14;34.07
48424;BME280;34232;42.502;26.014;2023-09-30T18:27:20;100133.47;;;23.06;34.26
48424;BME280;34232;42.502;26.014;2023-09-30T18:32:55;100134.47;;;22.78;35.25
48424;BME280;34232;42.502;26.014;2023-09-30T18:35:23;100131.97;;;22.70;35.49
48424;BME280;34232;42.502;26.014;2023-09-30T18:37:54;100143.50;;;22.64;35.77
48424;BME280;34232;42.502;26.014;2023-09-30T18:40:40;100139.34;;;22.55;35.91
48424;BME280;34232;42.502;26.014;2023-09-30T18:46:13;100140.78;;;22.57;35.05
48424;BME280;34232;42.502;26.014;2023-09-30T18:48:40;100141.84;;;22.63;35.26
48424;BME280;34232;42.502;26.014;2023-09-30T18:51:07;100138.75;;;22.66;35.39
48424;BME280;34232;42.502;26.014;2023-09-30T18:53:40;100139.16;;;22.63;35.55
48424;BME280;34232;42.502;26.014;2023-09-30T18:56:06;100146.78;;;22.53;35.65
48424;BME280;34232;42.502;26.014;2023-09-30T18:59:11;100138.09;;;22.51;36.14
48424;BME280;34232;42.502;26.014;2023-09-30T19:01:36;100149.22;;;22.48;35.70
48424;BME280;34232;42.502;26.014;2023-09-30T19:04:05;100144.25;;;22.45;36.16
48424;BME280;34232;42.502;26.014;2023-09-30T19:06:30;100146.31;;;22.43;35.77
48424;BME280;34232;42.502;26.014;2023-09-30T19:08:56;100143.81;;;22.41;36.24
48424;BME280;34232;42.502;26.014;2023-09-30T19:11:43;100152.91;;;22.33;35.89
48424;BME280;34232;42.502;26.014;2023-09-30T19:14:29;100149.16;;;22.28;36.16
48424;BME280;34232;42.502;26.014;2023-09-30T19:16:55;100152.03;;;22.26;36.15
48424;BME280;34232;42.502;26.014;2023-09-30T19:19:23;100148.31;;;22.27;36.50
48424;BME280;34232;42.502;26.014;2023-09-30T19:21:57;100144.19;;;22.25;36.97
48424;BME280;34232;42.502;26.014;2023-09-30T19:27:19;100143.28;;;22.11;37.82
48424;BME280;34232;42.502;26.014;2023-09-30T19:37:54;100138.53;;;21.79;38.70
48424;BME280;34232;42.502;26.014;2023-09-30T19:40:20;100135.66;;;21.74;38.95
48424;BME280;34232;42.502;26.014;2023-09-30T19:42:45;100148.84;;;21.75;39.08
48424;BME280;34232;42.502;26.014;2023-09-30T19:45:11;100143.50;;;21.75;38.94
48424;BME280;34232;42.502;26.014;2023-09-30T19:47:36;100143.28;;;21.77;39.10
48424;BME280;34232;42.502;26.014;2023-09-30T19:50:07;100146.94;;;21.69;39.02
48424;BME280;34232;42.502;26.014;2023-09-30T19:52:32;100143.69;;;21.74;39.14
48424;BME280;34232;42.502;26.014;2023-09-30T19:54:58;100144.28;;;21.76;38.93
48424;BME280;34232;42.502;26.014;2023-09-30T19:57:23;100141.47;;;21.84;38.42
48424;BME280;34232;42.502;26.014;2023-09-30T19:59:49;100141.94;;;21.94;37.70
48424;BME280;34232;42.502;26.014;2023-09-30T20:02:14;100142.44;;;22.04;36.92
48424;BME280;34232;42.502;26.014;2023-09-30T20:04:43;100141.25;;;22.13;36.95
48424;BME280;34232;42.502;26.014;2023-09-30T20:07:08;100140.91;;;22.23;36.87
48424;BME280;34232;42.502;26.014;2023-09-30T20:09:37;100147.09;;;22.30;36.75
48424;BME280;34232;42.502;26.014;2023-09-30T20:12:05;100143.81;;;22.34;36.36
48424;BME280;34232;42.502;26.014;2023-09-30T20:14:32;100134.34;;;22.39;36.67
48424;BME280;34232;42.502;26.014;2023-09-30T20:16:58;100135.19;;;22.39;36.31
48424;BME280;34232;42.502;26.014;2023-09-30T20:19:23;100140.94;;;22.36;36.63
48424;BME280;34232;42.502;26.014;2023-09-30T20:21:49;100137.63;;;22.34;36.63
48424;BME280;34232;42.502;26.014;2023-09-30T20:24:14;100138.84;;;22.31;36.74
48424;BME280;34232;42.502;26.014;2023-09-30T20:26:39;100139.28;;;22.35;36.75
48424;BME280;34232;42.502;26.014;2023-09-30T20:29:05;100139.88;;;22.30;37.27
48424;BME280;34232;42.502;26.014;2023-09-30T20:31:32;100141.13;;;22.34;36.70
48424;BME280;34232;42.502;26.014;2023-09-30T20:34:00;100140.94;;;22.36;37.01
48424;BME280;34232;42.502;26.014;2023-09-30T20:36:25;100140.94;;;22.36;37.10
48424;BME280;34232;42.502;26.014;2023-09-30T20:38:50;100136.00;;;22.40;36.86
48424;BME280;34232;42.502;26.014;2023-09-30T20:41:16;100131.88;;;22.44;37.16
48424;BME280;34232;42.502;26.014;2023-09-30T20:43:42;100132.09;;;22.49;36.21
48424;BME280;34232;42.502;26.014;2023-09-30T20:46:07;100129.66;;;22.54;36.63
48424;BME280;34232;42.502;26.014;2023-09-30T20:48:35;100131.91;;;22.57;36.68
48424;BME280;34232;42.502;26.014;2023-09-30T20:51:04;100131.09;;;22.63;36.97
48424;BME280;34232;42.502;26.014;2023-09-30T20:53:31;100134.41;;;22.65;36.35
48424;BME280;34232;42.502;26.014;2023-09-30T20:55:57;100130.72;;;22.66;36.71
48424;BME280;34232;42.502;26.014;2023-09-30T20:58:22;100131.53;;;22.66;36.87
48424;BME280;34232;42.502;26.014;2023-09-30T21:00:48;100128.66;;;22.68;36.93
48424;BME280;34232;42.502;26.014;2023-09-30T21:03:13;100132.75;;;22.64;37.15
48424;BME280;34232;42.502;26.014;2023-09-30T21:05:39;100136.88;;;22.60;37.11
48424;BME280;34232;42.502;26.014;2023-09-30T21:08:04;100136.84;;;22.47;37.56
48424;BME280;34232;42.502;26.014;2023-09-30T21:10:31;100136.22;;;22.45;37.58
48424;BME280;34232;42.502;26.014;2023-09-30T21:12:57;100128.16;;;22.45;37.34
48424;BME280;34232;42.502;26.014;2023-09-30T21:15:22;100131.47;;;22.47;37.88
48424;BME280;34232;42.502;26.014;2023-09-30T21:17:49;100133.53;;;22.45;37.89
48424;BME280;34232;42.502;26.014;2023-09-30T21:20:14;100133.91;;;22.42;38.19
48424;BME280;34232;42.502;26.014;2023-09-30T21:22:40;100133.88;;;22.28;37.87
48424;BME280;34232;42.502;26.014;2023-09-30T21:25:06;100136.13;;;22.18;38.02
48424;BME280;34232;42.502;26.014;2023-09-30T21:27:31;100129.69;;;22.13;38.29
48424;BME280;34232;42.502;26.014;2023-09-30T21:29:56;100128.03;;;22.12;37.45
48424;BME280;34232;42.502;26.014;2023-09-30T21:32:22;100129.50;;;22.14;37.07
48424;BME280;34232;42.502;26.014;2023-09-30T21:34:48;100133.84;;;22.15;37.47
48424;BME280;34232;42.502;26.014;2023-09-30T21:37:13;100138.59;;;22.20;37.64
48424;BME280;34232;42.502;26.014;2023-09-30T21:39:59;100135.09;;;22.26;36.79
48424;BME280;34232;42.502;26.014;2023-09-30T21:42:24;100128.13;;;22.31;36.95
48424;BME280;34232;42.502;26.014;2023-09-30T21:44:49;100139.28;;;22.35;36.79
48424;BME280;34232;42.502;26.014;2023-09-30T21:47:17;100136.00;;;22.40;36.08
48424;BME280;34232;42.502;26.014;2023-09-30T21:49:43;100135.19;;;22.46;36.21
48424;BME280;34232;42.502;26.014;2023-09-30T21:52:08;100124.06;;;22.49;36.51
48424;BME280;34232;42.502;26.014;2023-09-30T21:54:34;100129.03;;;22.52;36.08
48424;BME280;34232;42.502;26.014;2023-09-30T21:56:59;100119.75;;;22.54;36.06
48424;BME280;34232;42.502;26.014;2023-09-30T21:59:24;100118.91;;;22.54;36.07
48424;BME280;34232;42.502;26.014;2023-09-30T22:04:15;100122.22;;;22.56;36.14
48424;BME280;34232;42.502;26.014;2023-09-30T22:06:42;100121.59;;;22.54;35.95
48424;BME280;34232;42.502;26.014;2023-09-30T22:09:07;100124.88;;;22.49;35.69
48424;BME280;34232;42.502;26.014;2023-09-30T22:11:34;100116.63;;;22.51;35.20
48424;BME280;34232;42.502;26.014;2023-09-30T22:14:00;100124.69;;;22.51;34.96
48424;BME280;34232;42.502;26.014;2023-09-30T22:16:28;100117.03;;;22.48;35.22
48424;BME280;34232;42.502;26.014;2023-09-30T22:18:54;100126.09;;;22.47;35.26
48424;BME280;34232;42.502;26.014;2023-09-30T22:21:21;100122.78;;;22.45;35.52
48424;BME280;34232;42.502;26.014;2023-09-30T22:23:47;100121.53;;;22.41;35.33
48424;BME280;34232;42.502;26.014;2023-09-30T22:26:12;100124.84;;;22.43;35.36
48424;BME280;34232;42.502;26.014;2023-09-30T22:28:38;100123.19;;;22.42;35.26
48424;BME280;34232;42.502;26.014;2023-09-30T22:31:03;100121.53;;;22.41;35.33
48424;BME280;34232;42.502;26.014;2023-09-30T22:33:30;100123.19;;;22.42;35.33
48424;BME280;34232;42.502;26.014;2023-09-30T22:35:55;100127.97;;;22.40;35.68
48424;BME280;34232;42.502;26.014;2023-09-30T22:38:21;100130.22;;;22.36;35.31
48424;BME280;34232;42.502;26.014;2023-09-30T22:40:46;100122.56;;;22.33;35.46
48424;BME280;34232;42.502;26.014;2023-09-30T22:43:12;100126.06;;;22.33;35.58
48424;BME280;34232;42.502;26.014;2023-09-30T22:45:37;100137.44;;;22.36;35.65
48424;BME280;34232;42.502;26.014;2023-09-30T22:48:02;100125.25;;;22.33;35.38
48424;BME280;34232;42.502;26.014;2023-09-30T22:50:28;100135.53;;;22.29;35.68
48424;BME280;34232;42.502;26.014;2023-09-30T22:52:53;100133.44;;;22.25;35.67
48424;BME280;34232;42.502;26.014;2023-09-30T22:55:21;100123.97;;;22.22;35.76
48424;BME280;34232;42.502;26.014;2023-09-30T22:57:47;100128.50;;;22.22;35.53
48424;BME280;34232;42.502;26.014;2023-09-30T23:00:33;100132.84;;;22.23;35.73
48424;BME280;34232;42.502;26.014;2023-09-30T23:02:58;100123.97;;;22.22;35.79
48424;BME280;34232;42.502;26.014;2023-09-30T23:05:24;100127.47;;;22.23;35.56
48424;BME280;34232;42.502;26.014;2023-09-30T23:07:53;100134.69;;;22.22;35.63
48424;BME280;34232;42.502;26.014;2023-09-30T23:10:20;100129.34;;;22.22;35.71
48424;BME280;34232;42.502;26.014;2023-09-30T23:12:45;100126.66;;;22.22;35.73
48424;BME280;34232;42.502;26.014;2023-09-30T23:15:14;100127.69;;;22.21;35.50
48424;BME280;34232;42.502;26.014;2023-09-30T23:17:40;100126.03;;;22.20;35.54
48424;BME280;34232;42.502;26.014;2023-09-30T23:20:08;100116.31;;;22.19;35.54
48424;BME280;34232;42.502;26.014;2023-09-30T23:22:33;100119.81;;;22.20;35.42
48424;BME280;34232;42.502;26.014;2023-09-30T23:25:00;100120.66;;;22.20;35.81
48424;BME280;34232;42.502;26.014;2023-09-30T23:27:31;100119.81;;;22.20;35.75
48424;BME280;34232;42.502;26.014;2023-09-30T23:29:56;100121.06;;;22.17;35.81
48424;BME280;34232;42.502;26.014;2023-09-30T23:32:22;100124.38;;;22.19;35.78
48424;BME280;34232;42.502;26.014;2023-09-30T23:34:49;100111.59;;;22.21;35.82
48424;BME280;34232;42.502;26.014;2023-09-30T23:37:15;100115.28;;;22.20;35.49
48424;BME280;34232;42.502;26.014;2023-09-30T23:39:40;100109.94;;;22.20;35.38
48424;BME280;34232;42.502;26.014;2023-09-30T23:42:06;100114.47;;;22.20;35.31
48424;BME280;34232;42.502;26.014;2023-09-30T23:44:32;100109.94;;;22.20;35.57
48424;BME280;34232;42.502;26.014;2023-09-30T23:46:57;100115.06;;;22.15;35.40
48424;BME280;34232;42.502;26.014;2023-09-30T23:49:23;100113.41;;;22.14;35.43
48424;BME280;34232;42.502;26.014;2023-09-30T23:51:57;100109.69;;;22.15;35.61
48424;BME280;34232;42.502;26.014;2023-09-30T23:54:22;100114.03;;;22.16;35.66
48424;BME280;34232;42.502;26.014;2023-09-30T23:56:51;100112.13;;;22.10;35.59
48424;BME280;34232;42.502;26.014;2023-09-30T23:59:18;100102.44;;;22.09;36.03
